createdAt,value
2018-03-02T00:00:43.363Z,-8.90
2018-03-02T00:03:10.876Z,-9.00
2018-03-02T00:05:38.811Z,-9.00
2018-03-02T00:08:06.418Z,-9.00
2018-03-02T00:10:33.976Z,-9.00
2018-03-02T00:13:01.496Z,-9.00
2018-03-02T00:15:29.435Z,-9.10
2018-03-02T00:17:56.959Z,-9.10
2018-03-02T00:20:24.516Z,-9.00
2018-03-02T00:22:52.144Z,-9.10
2018-03-02T00:25:20.092Z,-9.10
2018-03-02T00:27:47.604Z,-9.10
2018-03-02T00:30:15.147Z,-9.10
2018-03-02T00:32:42.667Z,-9.10
2018-03-02T00:35:10.202Z,-9.10
2018-03-02T00:37:37.719Z,-9.10
2018-03-02T00:40:05.660Z,-9.10
2018-03-02T00:42:33.597Z,-9.20
2018-03-02T00:45:01.107Z,-9.20
2018-03-02T00:47:29.037Z,-9.20
2018-03-02T00:49:56.664Z,-9.20
2018-03-02T00:52:24.633Z,-9.30
2018-03-02T00:54:52.598Z,-9.30
2018-03-02T00:57:20.177Z,-9.30
2018-03-02T00:59:47.675Z,-9.30
2018-03-02T01:02:15.602Z,-9.30
2018-03-02T01:04:43.159Z,-9.30
2018-03-02T01:07:10.681Z,-9.30
2018-03-02T01:09:38.249Z,-9.30
2018-03-02T01:12:05.787Z,-9.30
2018-03-02T01:14:33.368Z,-9.40
2018-03-02T01:17:00.896Z,-9.40
2018-03-02T01:19:28.796Z,-9.40
2018-03-02T01:21:56.335Z,-9.40
2018-03-02T01:24:23.879Z,-9.40
2018-03-02T01:26:51.819Z,-9.40
2018-03-02T01:29:19.331Z,-9.50
2018-03-02T01:31:46.922Z,-9.50
2018-03-02T01:34:14.551Z,-9.50
2018-03-02T01:36:42.111Z,-9.50
2018-03-02T01:39:09.715Z,-9.60
2018-03-02T01:41:37.231Z,-9.50
2018-03-02T01:44:05.105Z,-9.60
2018-03-02T01:46:32.616Z,-9.60
2018-03-02T01:49:00.542Z,-9.60
2018-03-02T01:51:40.039Z,-9.60
2018-03-02T01:54:07.571Z,-9.60
2018-03-02T01:56:35.500Z,-9.60
2018-03-02T01:59:03.142Z,-9.70
2018-03-02T02:01:30.664Z,-9.70
2018-03-02T02:03:58.584Z,-9.70
2018-03-02T02:06:26.092Z,-9.70
2018-03-02T02:08:54.015Z,-9.80
2018-03-02T02:11:21.532Z,-9.80
2018-03-02T02:13:49.068Z,-9.80
2018-03-02T02:16:17.023Z,-9.80
2018-03-02T02:18:44.632Z,-9.80
2018-03-02T02:21:12.159Z,-9.80
2018-03-02T02:23:40.075Z,-9.70
2018-03-02T02:26:07.608Z,-9.70
2018-03-02T02:28:35.222Z,-9.70
2018-03-02T02:31:02.772Z,-9.70
2018-03-02T02:33:30.302Z,-9.70
2018-03-02T02:35:57.832Z,-9.70
2018-03-02T02:38:25.348Z,-9.70
2018-03-02T02:40:52.879Z,-9.70
2018-03-02T02:43:20.392Z,-9.60
2018-03-02T02:45:47.998Z,-9.60
2018-03-02T02:48:15.589Z,-9.60
2018-03-02T02:50:43.124Z,-9.50
2018-03-02T02:53:10.750Z,-9.50
2018-03-02T02:55:38.291Z,-9.60
2018-03-02T02:58:05.843Z,-9.60
2018-03-02T03:00:33.771Z,-9.50
2018-03-02T03:03:01.292Z,-9.50
2018-03-02T03:05:28.885Z,-9.50
2018-03-02T03:07:56.409Z,-9.50
2018-03-02T03:10:23.928Z,-9.50
2018-03-02T03:12:51.516Z,-9.50
2018-03-02T03:15:19.094Z,-9.50
2018-03-02T03:17:46.687Z,-9.40
2018-03-02T03:20:14.412Z,-9.40
2018-03-02T03:22:41.976Z,-9.50
2018-03-02T03:25:09.570Z,-9.50
2018-03-02T03:27:37.091Z,-9.50
2018-03-02T03:30:04.618Z,-9.50
2018-03-02T03:32:32.555Z,-9.50
2018-03-02T03:35:00.075Z,-9.50
2018-03-02T03:37:27.604Z,-9.50
2018-03-02T03:39:55.513Z,-9.50
2018-03-02T03:42:23.064Z,-9.50
2018-03-02T03:44:50.590Z,-9.50
2018-03-02T03:47:18.123Z,-9.50
2018-03-02T03:49:45.643Z,-9.60
2018-03-02T03:52:13.201Z,-9.50
2018-03-02T03:54:40.726Z,-9.50
2018-03-02T03:57:08.271Z,-9.50
2018-03-02T03:59:36.214Z,-9.50
2018-03-02T04:02:03.725Z,-9.50
2018-03-02T04:04:31.261Z,-9.50
2018-03-02T04:06:59.249Z,-9.50
2018-03-02T04:09:26.788Z,-9.50
2018-03-02T04:11:54.368Z,-9.50
2018-03-02T04:14:21.947Z,-9.60
2018-03-02T04:16:49.451Z,-9.50
2018-03-02T04:19:17.398Z,-9.60
2018-03-02T04:21:44.902Z,-9.60
2018-03-02T04:24:12.464Z,-9.60
2018-03-02T04:26:39.972Z,-9.60
2018-03-02T04:29:07.506Z,-9.60
2018-03-02T04:31:35.010Z,-9.60
2018-03-02T04:34:02.938Z,-9.60
2018-03-02T04:36:30.574Z,-9.60
2018-03-02T04:38:58.138Z,-9.50
2018-03-02T04:41:25.654Z,-9.50
2018-03-02T04:43:53.592Z,-9.50
2018-03-02T04:46:21.115Z,-9.50
2018-03-02T04:48:48.659Z,-9.50
2018-03-02T04:51:16.194Z,-9.50
2018-03-02T04:53:44.106Z,-9.40
2018-03-02T04:56:11.750Z,-9.50
2018-03-02T04:58:39.275Z,-9.50
2018-03-02T05:01:07.207Z,-9.40
2018-03-02T05:03:34.752Z,-9.40
2018-03-02T05:06:02.284Z,-9.50
2018-03-02T05:08:29.799Z,-9.50
2018-03-02T05:10:57.344Z,-9.50
2018-03-02T05:13:24.868Z,-9.50
2018-03-02T05:15:52.415Z,-9.50
2018-03-02T05:18:19.941Z,-9.50
2018-03-02T05:20:47.887Z,-9.50
2018-03-02T05:23:15.415Z,-9.50
2018-03-02T05:25:42.961Z,-9.50
2018-03-02T05:28:10.489Z,-9.50
2018-03-02T05:30:38.423Z,-9.50
2018-03-02T05:33:05.929Z,-9.50
2018-03-02T05:35:33.472Z,-9.50
2018-03-02T05:38:01.385Z,-9.50
2018-03-02T05:40:28.915Z,-9.50
2018-03-02T05:42:56.435Z,-9.50
2018-03-02T05:45:23.967Z,-9.40
2018-03-02T05:47:51.486Z,-9.40
2018-03-02T05:50:19.034Z,-9.40
2018-03-02T05:52:46.975Z,-9.50
2018-03-02T05:55:14.506Z,-9.50
2018-03-02T05:57:42.036Z,-9.40
2018-03-02T06:00:09.551Z,-9.50
2018-03-02T06:02:37.499Z,-9.40
2018-03-02T06:05:05.008Z,-9.50
2018-03-02T06:07:32.607Z,-9.40
2018-03-02T06:10:00.131Z,-9.40
2018-03-02T06:15:48.494Z,-9.40
2018-03-02T06:18:16.091Z,-9.40
2018-03-02T06:20:43.616Z,-9.40
2018-03-02T06:23:11.156Z,-9.40
2018-03-02T06:25:39.059Z,-9.40
2018-03-02T06:28:06.617Z,-9.40
2018-03-02T06:30:34.144Z,-9.40
2018-03-02T06:33:02.076Z,-9.40
2018-03-02T06:35:29.603Z,-9.40
2018-03-02T06:37:57.503Z,-9.30
2018-03-02T06:40:25.016Z,-9.30
2018-03-02T06:42:52.552Z,-9.30
2018-03-02T06:45:20.067Z,-9.30
2018-03-02T06:47:47.603Z,-9.30
2018-03-02T06:50:15.120Z,-9.20
2018-03-02T06:52:42.660Z,-9.20
2018-03-02T06:55:10.663Z,-9.20
2018-03-02T06:57:38.265Z,-9.20
2018-03-02T07:00:05.778Z,-9.20
2018-03-02T07:02:33.388Z,-9.20
2018-03-02T07:05:00.915Z,-9.10
2018-03-02T07:07:28.448Z,-9.10
2018-03-02T07:09:55.990Z,-9.10
2018-03-02T07:12:23.924Z,-9.10
2018-03-02T07:14:51.461Z,-9.10
2018-03-02T07:17:19.013Z,-9.10
2018-03-02T07:19:46.531Z,-9.10
2018-03-02T07:22:14.435Z,-9.10
2018-03-02T07:24:41.977Z,-9.00
2018-03-02T07:27:09.484Z,-8.90
2018-03-02T07:29:37.013Z,-8.90
2018-03-02T07:32:04.526Z,-8.90
2018-03-02T07:34:32.456Z,-8.90
2018-03-02T07:36:59.972Z,-8.90
2018-03-02T07:39:27.576Z,-8.80
2018-03-02T07:41:55.187Z,-8.70
2018-03-02T07:44:22.935Z,-8.60
2018-03-02T07:46:50.843Z,-8.60
2018-03-02T07:49:18.486Z,-8.60
2018-03-02T07:51:46.011Z,-8.50
2018-03-02T07:54:13.922Z,-8.50
2018-03-02T07:56:41.467Z,-8.50
2018-03-02T07:59:09.404Z,-8.40
2018-03-02T08:01:37.327Z,-8.40
2018-03-02T08:04:04.849Z,-8.30
2018-03-02T08:06:32.387Z,-8.20
2018-03-02T08:09:00.293Z,-8.10
2018-03-02T08:11:27.841Z,-8.10
2018-03-02T08:13:55.359Z,-7.90
2018-03-02T08:16:22.902Z,-7.90
2018-03-02T08:18:50.450Z,-7.70
2018-03-02T08:21:18.383Z,-7.50
2018-03-02T08:23:45.894Z,-7.60
2018-03-02T08:26:13.431Z,-7.50
2018-03-02T08:28:40.939Z,-7.50
2018-03-02T08:31:08.498Z,-7.50
2018-03-02T08:33:36.012Z,-7.50
2018-03-02T08:36:03.545Z,-7.40
2018-03-02T08:38:31.079Z,-7.20
2018-03-02T08:40:58.587Z,-7.30
2018-03-02T08:43:26.133Z,-7.20
2018-03-02T08:45:53.660Z,-7.20
2018-03-02T08:48:21.591Z,-7.20
2018-03-02T08:50:49.497Z,-7.00
2018-03-02T08:53:17.033Z,-7.10
2018-03-02T08:55:44.951Z,-7.00
2018-03-02T08:58:12.515Z,-7.10
2018-03-02T09:00:40.037Z,-7.00
2018-03-02T09:03:07.657Z,-6.90
2018-03-02T09:05:35.597Z,-6.60
2018-03-02T09:08:03.131Z,-6.40
2018-03-02T09:10:30.654Z,-6.20
2018-03-02T09:12:58.610Z,-5.80
2018-03-02T09:15:26.519Z,-5.50
2018-03-02T09:17:54.077Z,-5.20
2018-03-02T09:20:21.604Z,-5.00
2018-03-02T09:22:49.517Z,-4.90
2018-03-02T09:25:17.071Z,-4.50
2018-03-02T09:27:44.588Z,-4.00
2018-03-02T09:30:12.610Z,-4.00
2018-03-02T09:32:40.147Z,-3.90
2018-03-02T09:35:07.719Z,-3.80
2018-03-02T09:37:35.235Z,-3.70
2018-03-02T09:40:03.174Z,-3.60
2018-03-02T09:42:30.692Z,-3.40
2018-03-02T09:44:58.228Z,-3.40
2018-03-02T09:47:25.762Z,-3.30
2018-03-02T09:49:53.712Z,-3.20
2018-03-02T09:52:21.234Z,-3.10
2018-03-02T09:54:48.795Z,-2.70
2018-03-02T09:57:16.355Z,-2.70
2018-03-02T09:59:43.896Z,-3.10
2018-03-02T10:02:11.423Z,-3.10
2018-03-02T10:04:39.459Z,-2.30
2018-03-02T10:07:06.951Z,-2.30
2018-03-02T10:09:34.871Z,-2.00
2018-03-02T10:12:02.381Z,-1.80
2018-03-02T10:14:30.309Z,-1.90
2018-03-02T10:16:57.828Z,-1.90
2018-03-02T10:19:25.380Z,-1.70
2018-03-02T10:21:52.919Z,-1.60
2018-03-02T10:24:20.923Z,-1.30
2018-03-02T10:26:48.466Z,-1.30
2018-03-02T10:29:16.039Z,-1.30
2018-03-02T10:31:43.563Z,-1.60
2018-03-02T10:34:11.566Z,-1.60
2018-03-02T10:36:39.075Z,-1.50
2018-03-02T10:39:06.615Z,-1.40
2018-03-02T10:41:34.163Z,-1.40
2018-03-02T10:44:01.712Z,-1.40
2018-03-02T10:46:29.243Z,-1.60
2018-03-02T10:48:56.803Z,-1.60
2018-03-02T10:51:24.331Z,-1.00
2018-03-02T10:53:52.278Z,-1.00
2018-03-02T10:56:19.779Z,-1.00
2018-03-02T10:58:47.315Z,-1.00
2018-03-02T11:01:20.947Z,-0.30
2018-03-02T11:03:48.513Z,-0.30
2018-03-02T11:06:16.073Z,0.10
2018-03-02T11:08:43.610Z,-0.10
2018-03-02T11:11:11.147Z,-0.10
2018-03-02T11:13:39.052Z,-0.80
2018-03-02T11:16:06.627Z,-1.20
2018-03-02T11:18:34.235Z,-1.50
2018-03-02T11:21:02.175Z,-1.80
2018-03-02T11:23:29.694Z,-1.80
2018-03-02T11:25:57.261Z,-1.80
2018-03-02T11:28:24.775Z,-1.90
2018-03-02T11:30:52.711Z,-2.00
2018-03-02T11:33:20.236Z,-2.10
2018-03-02T11:35:47.775Z,-2.10
2018-03-02T11:38:15.771Z,-2.20
2018-03-02T11:40:43.310Z,-2.20
2018-03-02T11:43:10.824Z,-2.20
2018-03-02T11:45:38.392Z,-2.20
2018-03-02T11:48:06.002Z,-2.10
2018-03-02T11:50:33.552Z,-2.10
2018-03-02T11:53:01.072Z,-2.10
2018-03-02T11:55:28.608Z,-2.30
2018-03-02T11:57:56.119Z,-2.30
2018-03-02T12:00:23.669Z,-2.30
2018-03-02T12:02:51.195Z,-2.20
2018-03-02T12:05:18.733Z,-2.10
2018-03-02T12:07:46.240Z,-2.30
2018-03-02T12:10:13.796Z,-2.30
2018-03-02T12:12:41.795Z,-2.40
2018-03-02T12:15:09.325Z,-2.40
2018-03-02T12:17:37.242Z,-2.40
2018-03-02T12:20:04.776Z,-2.30
2018-03-02T12:22:32.333Z,-2.30
2018-03-02T12:24:59.892Z,-2.20
2018-03-02T12:27:27.449Z,-2.20
2018-03-02T12:29:54.975Z,-2.10
2018-03-02T12:32:22.879Z,-2.00
2018-03-02T12:34:50.422Z,-2.00
2018-03-02T12:37:18.004Z,-1.80
2018-03-02T12:39:45.646Z,-1.80
2018-03-02T12:42:13.167Z,-1.80
2018-03-02T12:44:40.735Z,-1.80
2018-03-02T12:47:08.649Z,-1.90
2018-03-02T12:49:36.163Z,-1.90
2018-03-02T12:52:04.107Z,-1.80
2018-03-02T12:54:31.666Z,-1.80
2018-03-02T12:56:59.301Z,-1.70
2018-03-02T12:59:26.846Z,-1.70
2018-03-02T13:01:54.380Z,-1.60
2018-03-02T13:04:21.907Z,-1.70
2018-03-02T13:06:49.523Z,-1.70
2018-03-02T13:09:17.081Z,-1.50
2018-03-02T13:11:44.643Z,-1.50
2018-03-02T13:14:12.172Z,-1.60
2018-03-02T13:16:39.724Z,-1.70
2018-03-02T13:19:07.646Z,-1.70
2018-03-02T13:21:35.185Z,-1.60
2018-03-02T13:24:02.764Z,-1.70
2018-03-02T13:26:42.059Z,-1.70
2018-03-02T13:29:09.575Z,-1.60
2018-03-02T13:31:37.176Z,-1.70
2018-03-02T13:34:17.133Z,-1.70
2018-03-02T13:36:45.506Z,-1.60
2018-03-02T13:39:13.023Z,-1.60
2018-03-02T13:41:52.838Z,-1.50
2018-03-02T13:44:20.376Z,-1.40
2018-03-02T13:46:47.910Z,-1.40
2018-03-02T13:49:27.107Z,-1.40
2018-03-02T13:51:54.720Z,-1.30
2018-03-02T13:54:22.232Z,-1.10
2018-03-02T13:57:01.691Z,-0.90
2018-03-02T13:59:29.687Z,-0.70
2018-03-02T14:01:57.226Z,-0.60
2018-03-02T14:04:36.447Z,-0.60
2018-03-02T14:07:04.388Z,-0.50
2018-03-02T14:09:31.922Z,-0.50
2018-03-02T14:11:59.458Z,-0.50
2018-03-02T14:14:27.062Z,-0.50
2018-03-02T14:16:54.671Z,-0.60
2018-03-02T14:19:22.179Z,-0.50
2018-03-02T14:21:49.707Z,-0.40
2018-03-02T14:24:17.248Z,-0.40
2018-03-02T14:26:44.756Z,-0.30
2018-03-02T14:29:12.283Z,-0.10
2018-03-02T14:31:39.790Z,-0.10
2018-03-02T14:34:07.768Z,-0.10
2018-03-02T14:36:35.351Z,-0.10
2018-03-02T14:39:02.880Z,-0.10
2018-03-02T14:41:30.796Z,-0.30
2018-03-02T14:43:58.336Z,-0.50
2018-03-02T14:46:25.877Z,-0.50
2018-03-02T14:48:53.419Z,-0.50
2018-03-02T14:51:21.328Z,-0.60
2018-03-02T14:53:48.868Z,-0.60
2018-03-02T14:56:16.402Z,-0.60
2018-03-02T14:58:44.335Z,-0.60
2018-03-02T15:01:11.867Z,-0.60
2018-03-02T15:03:39.399Z,-0.60
2018-03-02T15:06:06.981Z,-0.60
2018-03-02T15:08:34.503Z,-0.60
2018-03-02T15:11:02.455Z,-0.80
2018-03-02T15:13:30.380Z,-0.90
2018-03-02T15:15:57.923Z,-0.80
2018-03-02T15:18:25.434Z,-1.00
2018-03-02T15:20:53.373Z,-1.00
2018-03-02T15:23:20.941Z,-1.00
2018-03-02T15:25:48.503Z,-1.00
2018-03-02T15:28:16.027Z,-1.10
2018-03-02T15:30:43.584Z,-1.10
2018-03-02T15:33:11.098Z,-1.10
2018-03-02T15:35:39.035Z,-1.10
2018-03-02T15:38:06.567Z,-1.10
2018-03-02T15:40:34.224Z,-1.10
2018-03-02T15:43:01.771Z,-1.10
2018-03-02T15:45:29.307Z,-1.10
2018-03-02T15:47:57.235Z,-1.20
2018-03-02T15:50:24.783Z,-1.20
2018-03-02T15:52:52.322Z,-1.10
2018-03-02T15:55:19.844Z,-1.10
2018-03-02T15:57:47.784Z,-1.20
2018-03-02T16:00:15.325Z,-1.20
2018-03-02T16:02:42.868Z,-1.20
2018-03-02T16:05:10.429Z,-1.20
2018-03-02T16:07:37.961Z,-1.20
2018-03-02T16:10:05.898Z,-1.20
2018-03-02T16:12:33.426Z,-1.20
2018-03-02T16:15:00.947Z,-1.20
2018-03-02T16:17:28.558Z,-1.20
2018-03-02T16:19:56.072Z,-1.30
2018-03-02T16:22:23.595Z,-1.30
2018-03-02T16:24:51.106Z,-1.40
2018-03-02T16:27:18.696Z,-1.40
2018-03-02T16:29:46.248Z,-1.40
2018-03-02T16:32:13.788Z,-1.40
2018-03-02T16:34:41.331Z,-1.50
2018-03-02T16:37:08.853Z,-1.50
2018-03-02T16:39:36.801Z,-1.50
2018-03-02T16:42:04.308Z,-1.50
2018-03-02T16:44:31.856Z,-1.50
2018-03-02T16:46:59.371Z,-1.50
2018-03-02T16:49:26.909Z,-1.50
2018-03-02T16:51:54.416Z,-1.50
2018-03-02T16:54:22.340Z,-1.50
2018-03-02T16:56:49.976Z,-1.50
2018-03-02T16:59:17.913Z,-1.50
2018-03-02T17:01:45.837Z,-1.50
2018-03-02T17:04:13.370Z,-1.50
2018-03-02T17:06:40.935Z,-1.60
2018-03-02T17:09:08.463Z,-1.60
2018-03-02T17:11:35.983Z,-1.70
2018-03-02T17:14:03.517Z,-1.70
2018-03-02T17:16:31.044Z,-1.70
2018-03-02T17:18:58.717Z,-1.70
2018-03-02T17:21:26.231Z,-1.70
2018-03-02T17:23:53.788Z,-1.60
2018-03-02T17:26:21.334Z,-1.70
2018-03-02T17:28:48.940Z,-1.70
2018-03-02T17:31:16.523Z,-1.70
2018-03-02T17:33:44.055Z,-1.70
2018-03-02T17:36:11.731Z,-1.70
2018-03-02T17:38:39.280Z,-1.70
2018-03-02T17:41:06.829Z,-1.80
2018-03-02T17:43:34.352Z,-1.70
2018-03-02T17:46:01.900Z,-1.70
2018-03-02T17:48:29.432Z,-1.70
2018-03-02T17:50:56.963Z,-1.70
2018-03-02T17:53:24.473Z,-1.70
2018-03-02T17:55:52.001Z,-1.70
2018-03-02T17:58:19.527Z,-1.80
2018-03-02T18:00:47.071Z,-1.80
2018-03-02T18:03:14.988Z,-1.80
2018-03-02T18:05:42.581Z,-1.80
2018-03-02T18:08:10.070Z,-1.80
2018-03-02T18:10:37.613Z,-1.80
2018-03-02T18:13:05.527Z,-1.70
2018-03-02T18:15:33.055Z,-1.70
2018-03-02T18:18:00.572Z,-1.70
2018-03-02T18:20:28.195Z,-1.80
2018-03-02T18:22:55.799Z,-1.80
2018-03-02T18:25:23.420Z,-1.80
2018-03-02T18:27:50.975Z,-1.90
2018-03-02T18:30:18.501Z,-1.90
2018-03-02T18:32:46.439Z,-1.90
2018-03-02T18:35:13.958Z,-1.90
2018-03-02T18:37:41.508Z,-1.90
2018-03-02T18:40:09.023Z,-1.90
2018-03-02T18:42:36.969Z,-1.90
2018-03-02T18:45:04.496Z,-1.90
2018-03-02T18:47:32.048Z,-1.90
2018-03-02T18:49:59.563Z,-1.90
2018-03-02T18:52:27.095Z,-2.00
2018-03-02T18:54:54.607Z,-2.00
2018-03-02T18:57:22.157Z,-2.00
2018-03-02T18:59:50.071Z,-2.10
2018-03-02T19:02:17.612Z,-2.10
2018-03-02T19:04:45.143Z,-2.10
2018-03-02T19:07:13.099Z,-2.00
2018-03-02T19:09:41.020Z,-2.00
2018-03-02T19:12:08.536Z,-2.00
2018-03-02T19:14:36.488Z,-2.00
2018-03-02T19:17:04.396Z,-1.90
2018-03-02T19:19:31.936Z,-1.90
2018-03-02T19:21:59.592Z,-1.90
2018-03-02T19:24:27.257Z,-2.00
2018-03-02T19:26:54.779Z,-2.20
2018-03-02T19:29:22.306Z,-2.10
2018-03-02T19:31:49.857Z,-2.10
2018-03-02T19:34:17.392Z,-2.20
2018-03-02T19:36:44.923Z,-2.30
2018-03-02T19:39:12.878Z,-2.40
2018-03-02T19:41:40.411Z,-2.40
2018-03-02T19:44:07.958Z,-2.40
2018-03-02T19:46:35.481Z,-2.50
2018-03-02T19:49:03.019Z,-2.50
2018-03-02T19:51:30.929Z,-2.50
2018-03-02T19:53:58.474Z,-2.50
2018-03-02T19:56:26.065Z,-2.50
2018-03-02T19:58:53.648Z,-2.50
2018-03-02T20:01:21.188Z,-2.40
2018-03-02T20:03:48.886Z,-2.30
2018-03-02T20:06:16.376Z,-2.30
2018-03-02T20:08:43.897Z,-2.30
2018-03-02T20:11:11.834Z,-2.20
2018-03-02T20:13:39.419Z,-2.20
2018-03-02T20:16:06.974Z,-2.20
2018-03-02T20:18:34.495Z,-2.20
2018-03-02T20:21:02.051Z,-2.20
2018-03-02T20:23:29.573Z,-2.10
2018-03-02T20:25:57.506Z,-2.10
2018-03-02T20:28:25.038Z,-2.10
2018-03-02T20:30:52.704Z,-2.10
2018-03-02T20:33:20.232Z,-2.00
2018-03-02T20:35:47.903Z,-2.00
2018-03-02T20:38:15.468Z,-2.10
2018-03-02T20:40:43.012Z,-2.20
2018-03-02T20:43:10.586Z,-2.20
2018-03-02T20:45:38.140Z,-2.20
2018-03-02T20:48:05.661Z,-2.20
2018-03-02T20:50:33.649Z,-2.20
2018-03-02T20:53:01.184Z,-2.20
2018-03-02T20:55:29.141Z,-2.30
2018-03-02T20:57:57.059Z,-2.40
2018-03-02T21:00:24.719Z,-2.40
2018-03-02T21:02:52.239Z,-2.40
2018-03-02T21:05:20.148Z,-2.40
2018-03-02T21:07:47.700Z,-2.40
2018-03-02T21:10:15.289Z,-2.40
2018-03-02T21:12:42.820Z,-2.40
2018-03-02T21:15:10.335Z,-2.50
2018-03-02T21:17:38.271Z,-2.40
2018-03-02T21:20:05.826Z,-2.40
2018-03-02T21:22:33.359Z,-2.40
2018-03-02T21:25:00.900Z,-2.50
2018-03-02T21:27:28.456Z,-2.50
2018-03-02T21:29:55.976Z,-2.60
2018-03-02T21:32:23.510Z,-2.60
2018-03-02T21:34:51.160Z,-2.60
2018-03-02T21:37:18.747Z,-2.60
2018-03-02T21:39:46.372Z,-2.60
2018-03-02T21:42:13.902Z,-2.60
2018-03-02T21:44:41.821Z,-2.60
2018-03-02T21:47:09.375Z,-2.60
2018-03-02T21:49:36.907Z,-2.60
2018-03-02T21:52:04.452Z,-2.60
2018-03-02T21:54:31.980Z,-2.50
2018-03-02T21:56:59.531Z,-2.50
2018-03-02T21:59:27.048Z,-2.50
2018-03-02T22:01:54.585Z,-2.50
2018-03-02T22:04:22.266Z,-2.50
2018-03-02T22:06:49.778Z,-2.50
2018-03-02T22:09:17.728Z,-2.50
2018-03-02T22:11:45.247Z,-2.50
2018-03-02T22:14:12.796Z,-2.50
2018-03-02T22:16:40.368Z,-2.50
2018-03-02T22:19:07.896Z,-2.50
2018-03-02T22:21:35.500Z,-2.50
2018-03-02T22:24:03.042Z,-2.50
2018-03-02T22:26:30.555Z,-2.50
2018-03-02T22:28:58.482Z,-2.40
2018-03-02T22:31:26.009Z,-2.40
2018-03-02T22:33:53.960Z,-2.20
2018-03-02T22:36:21.889Z,-2.20
2018-03-02T22:38:49.440Z,-2.20
2018-03-02T22:41:16.986Z,-2.20
2018-03-02T22:43:44.555Z,-2.30
2018-03-02T22:46:12.120Z,-2.40
2018-03-02T22:48:39.627Z,-2.40
2018-03-02T22:51:07.562Z,-2.40
2018-03-02T22:53:35.182Z,-2.40
2018-03-02T22:56:02.718Z,-2.40
2018-03-02T22:58:30.305Z,-2.40
2018-03-02T23:00:57.883Z,-2.50
2018-03-02T23:03:25.405Z,-2.50
2018-03-02T23:05:52.939Z,-2.50
2018-03-02T23:08:20.852Z,-2.50
2018-03-02T23:10:48.487Z,-2.50
2018-03-02T23:13:16.008Z,-2.50
2018-03-02T23:15:43.942Z,-2.40
2018-03-02T23:18:11.464Z,-2.40
2018-03-02T23:20:39.012Z,-2.40
2018-03-02T23:23:06.601Z,-2.40
2018-03-02T23:25:34.123Z,-2.40
2018-03-02T23:28:02.048Z,-2.40
2018-03-02T23:30:29.581Z,-2.40
2018-03-02T23:32:57.187Z,-2.30
2018-03-02T23:35:24.696Z,-2.30
2018-03-02T23:37:52.281Z,-2.20
2018-03-02T23:40:19.795Z,-2.20
2018-03-02T23:42:47.331Z,-2.20
2018-03-02T23:45:15.248Z,-2.30
2018-03-02T23:47:42.787Z,-2.30
2018-03-02T23:50:10.303Z,-2.30
2018-03-02T23:52:37.850Z,-2.30
2018-03-02T23:55:05.371Z,-2.20
2018-03-02T23:57:32.970Z,-2.20
